Time;durP1;ratioP1;P1;durP2;ratioP2;P2;SDS_P1;SDS_P2;PMS_P1;PMS_P2;Temp;Humidity;BMP_temperature;BMP_pressure;BME280_temperature;BME280_humidity;BME280_pressure;Samples;Min_cycle;Max_cycle;Signal;HPM_P1;HPM_P2
2022/04/18 00:01:34;;;;;;;15.98;11.60;;;9.80;46.70;;;;;;5041785;28;20057;-73
2022/04/18 00:04:00;;;;;;;14.25;10.07;;;9.80;47.00;;;;;;5040330;28;20464;-72
2022/04/18 00:06:26;;;;;;;15.48;11.18;;;9.70;47.80;;;;;;5041935;28;20080;-73
2022/04/18 00:08:51;;;;;;;15.85;10.15;;;9.70;47.40;;;;;;5043057;28;20044;-70
2022/04/18 00:11:17;;;;;;;15.98;10.77;;;9.70;47.60;;;;;;5040031;28;20037;-72
2022/04/18 00:13:42;;;;;;;16.38;11.38;;;9.70;47.60;;;;;;5043713;28;20071;-71
2022/04/18 00:16:08;;;;;;;16.25;10.63;;;9.70;47.80;;;;;;5040840;28;20033;-71
2022/04/18 00:18:33;;;;;;;15.90;11.10;;;9.60;48.00;;;;;;5041155;28;20025;-70
2022/04/18 00:20:59;;;;;;;15.50;10.45;;;9.60;48.10;;;;;;5041696;28;20664;-71
2022/04/18 00:23:24;;;;;;;16.00;10.90;;;9.60;48.10;;;;;;5040931;28;20411;-71
2022/04/18 00:25:50;;;;;;;16.52;11.13;;;9.60;48.40;;;;;;5042562;28;20514;-71
2022/04/18 00:28:15;;;;;;;17.02;11.27;;;9.60;48.60;;;;;;5042503;28;20491;-72
2022/04/18 00:30:42;;;;;;;14.73;10.55;;;9.60;48.60;;;;;;5022898;28;20067;-72
2022/04/18 00:33:09;;;;;;;17.35;11.10;;;9.50;48.80;;;;;;5042374;28;20043;-71
2022/04/18 00:35:35;;;;;;;17.10;11.27;;;9.50;49.00;;;;;;5040823;28;20509;-72
2022/04/18 00:38:00;;;;;;;15.68;10.60;;;9.40;49.30;;;;;;5039933;28;20049;-72
2022/04/18 00:40:26;;;;;;;18.08;11.50;;;9.30;49.60;;;;;;5042613;28;20035;-72
2022/04/18 00:43:00;;;;;;;18.27;11.38;;;9.30;49.90;;;;;;5042206;28;20443;-72
2022/04/18 00:45:25;;;;;;;21.15;12.43;;;9.30;50.10;;;;;;5042898;28;20045;-72
2022/04/18 00:47:51;;;;;;;15.73;11.52;;;9.20;50.20;;;;;;5040510;28;20033;-72
2022/04/18 00:50:16;;;;;;;19.98;12.20;;;9.20;50.60;;;;;;5041336;28;20087;-72
2022/04/18 00:52:42;;;;;;;16.50;11.80;;;9.10;50.80;;;;;;5042669;28;20044;-72
2022/04/18 00:55:10;;;;;;;21.55;12.25;;;9.10;51.00;;;;;;5040886;28;20101;-72
2022/04/18 00:57:37;;;;;;;17.50;11.85;;;9.10;51.10;;;;;;5041409;28;20029;-72
2022/04/18 01:00:04;;;;;;;15.68;10.60;;;9.10;51.20;;;;;;5042498;28;20041;-73
2022/04/18 01:02:30;;;;;;;16.65;11.60;;;9.00;51.30;;;;;;5039636;28;20510;-73
2022/04/18 01:04:55;;;;;;;17.80;11.50;;;9.00;51.70;;;;;;5040396;28;20045;-73
2022/04/18 01:07:21;;;;;;;16.35;12.30;;;9.00;51.70;;;;;;5041151;28;20049;-73
2022/04/18 01:09:47;;;;;;;19.00;12.07;;;8.90;51.80;;;;;;5041052;28;20048;-72
2022/04/18 01:12:12;;;;;;;22.15;12.00;;;8.90;51.90;;;;;;5041183;28;20033;-72
2022/04/18 01:14:38;;;;;;;18.60;12.52;;;8.80;52.00;;;;;;5040554;28;20033;-72
2022/04/18 01:17:04;;;;;;;17.77;11.80;;;8.80;53.00;;;;;;5040553;28;20054;-72
2022/04/18 01:19:29;;;;;;;17.23;12.00;;;8.90;52.50;;;;;;5039367;28;20034;-72
2022/04/18 01:21:55;;;;;;;16.40;10.95;;;8.80;52.60;;;;;;5041267;28;20471;-72
2022/04/18 01:29:50;;;;;;;15.82;11.48;;;8.70;53.10;;;;;;5041276;28;20406;-72
2022/04/18 01:32:16;;;;;;;19.42;12.40;;;8.80;53.20;;;;;;5040844;28;20029;-73
2022/04/18 01:34:41;;;;;;;17.88;11.95;;;8.70;53.30;;;;;;5039195;28;20037;-73
2022/04/18 01:37:07;;;;;;;17.77;11.43;;;8.70;53.40;;;;;;5042228;28;20087;-73
2022/04/18 01:39:32;;;;;;;16.52;12.13;;;8.60;53.50;;;;;;5022724;28;20095;-73
2022/04/18 01:41:58;;;;;;;20.70;11.93;;;8.60;53.60;;;;;;5039388;28;20041;-71
2022/04/18 01:44:23;;;;;;;17.13;11.30;;;8.60;53.70;;;;;;5041062;28;20051;-72
2022/04/18 01:46:50;;;;;;;18.00;11.48;;;8.60;53.90;;;;;;5040213;28;20499;-73
2022/04/18 01:49:16;;;;;;;17.52;11.38;;;8.60;54.00;;;;;;5040195;28;20497;-73
2022/04/18 01:51:41;;;;;;;17.13;12.07;;;8.50;54.50;;;;;;5039762;28;20073;-73
2022/04/18 01:54:07;;;;;;;18.02;12.52;;;8.50;54.40;;;;;;5039042;28;20041;-73
2022/04/18 01:56:33;;;;;;;17.58;12.25;;;8.50;54.40;;;;;;5040734;28;20041;-73
2022/04/18 01:58:58;;;;;;;20.65;13.23;;;8.50;54.40;;;;;;5039608;28;20552;-72
2022/04/18 02:01:24;;;;;;;18.92;11.73;;;8.50;54.40;;;;;;5038669;28;20048;-73
2022/04/18 02:03:49;;;;;;;19.50;12.50;;;8.50;54.40;;;;;;5040831;28;20045;-73
2022/04/18 02:06:15;;;;;;;22.30;11.80;;;8.50;54.50;;;;;;5039332;28;20037;-73
2022/04/18 02:08:40;;;;;;;18.63;12.98;;;8.50;54.80;;;;;;5040979;28;20479;-72
2022/04/18 02:11:06;;;;;;;18.35;12.52;;;8.40;54.90;;;;;;5040111;28;20715;-72
2022/04/18 02:13:32;;;;;;;17.92;12.23;;;8.40;55.10;;;;;;5041442;28;20459;-72
2022/04/18 02:15:59;;;;;;;18.15;12.60;;;8.30;55.40;;;;;;5041103;28;20372;-72
2022/04/18 02:18:24;;;;;;;20.05;12.77;;;8.30;55.60;;;;;;5041482;28;20442;-71
2022/04/18 02:20:50;;;;;;;19.70;12.40;;;8.30;55.90;;;;;;5039376;28;20037;-72
2022/04/18 02:23:15;;;;;;;19.83;12.52;;;8.20;55.90;;;;;;5041621;28;20510;-72
2022/04/18 02:25:41;;;;;;;21.20;13.48;;;8.30;55.90;;;;;;5040106;28;20463;-72
2022/04/18 02:28:07;;;;;;;17.13;11.50;;;8.20;55.90;;;;;;5041732;28;20039;-72
2022/04/18 02:30:32;;;;;;;16.52;11.60;;;8.20;56.00;;;;;;5027329;28;20083;-72
2022/04/18 02:32:59;;;;;;;19.80;12.45;;;8.20;56.10;;;;;;5043841;28;20104;-73
2022/04/18 02:35:26;;;;;;;20.05;11.73;;;8.20;56.10;;;;;;5043857;28;20643;-72
2022/04/18 02:37:53;;;;;;;16.98;11.30;;;8.20;56.10;;;;;;5045348;28;20452;-72
2022/04/18 02:40:19;;;;;;;17.13;11.85;;;8.20;56.20;;;;;;5042803;28;20041;-72
2022/04/18 02:42:45;;;;;;;20.65;12.70;;;8.20;56.10;;;;;;5042425;28;20043;-73
2022/04/18 02:45:14;;;;;;;17.63;11.63;;;8.20;57.00;;;;;;5043956;28;20037;-72
2022/04/18 02:47:40;;;;;;;18.67;12.63;;;8.20;56.20;;;;;;5026014;28;20041;-71
2022/04/18 02:50:07;;;;;;;21.05;11.85;;;8.10;56.30;;;;;;5043318;28;20513;-71
2022/04/18 02:52:32;;;;;;;17.27;11.55;;;8.10;56.30;;;;;;5027148;28;20037;-73
2022/04/18 02:54:58;;;;;;;20.90;12.85;;;8.20;56.30;;;;;;5025631;28;20040;-73
2022/04/18 02:57:23;;;;;;;19.40;12.20;;;8.10;56.20;;;;;;5042568;28;20134;-72
2022/04/18 02:59:49;;;;;;;19.25;11.32;;;8.10;56.50;;;;;;5044804;28;20029;-72
2022/04/18 03:02:15;;;;;;;18.38;11.45;;;8.10;56.50;;;;;;5042459;28;20037;-73
2022/04/18 03:04:40;;;;;;;18.13;12.05;;;8.10;56.60;;;;;;5042786;28;20426;-72
2022/04/18 03:07:06;;;;;;;16.50;11.73;;;8.10;56.70;;;;;;5043170;28;20041;-72
2022/04/18 03:09:32;;;;;;;18.33;11.20;;;8.00;56.90;;;;;;5041341;28;20073;-73
2022/04/18 03:11:57;;;;;;;21.95;13.25;;;8.00;57.00;;;;;;5043225;28;20073;-72
2022/04/18 03:14:24;;;;;;;17.80;12.40;;;8.00;57.10;;;;;;5042101;28;20047;-72
2022/04/18 03:16:49;;;;;;;19.98;12.23;;;7.90;57.40;;;;;;5046242;28;20059;-72
2022/04/18 03:19:15;;;;;;;16.30;11.15;;;8.00;57.50;;;;;;5042678;28;20037;-73
2022/04/18 03:21:41;;;;;;;18.48;12.13;;;8.00;57.70;;;;;;5064332;22;20037;-66
2022/04/18 03:24:07;;;;;;;18.58;11.57;;;7.90;57.60;;;;;;5053476;28;20056;-67
2022/04/18 03:26:33;;;;;;;17.70;13.00;;;7.90;57.90;;;;;;5052917;28;20495;-67
2022/04/18 03:28:58;;;;;;;17.48;12.30;;;7.90;58.00;;;;;;5051312;28;20113;-66
2022/04/18 03:31:24;;;;;;;19.25;11.80;;;7.90;58.20;;;;;;5051127;28;20104;-67
2022/04/18 03:33:49;;;;;;;17.25;11.05;;;7.80;58.30;;;;;;5033323;28;20087;-67
2022/04/18 03:41:43;;;;;;;16.23;10.93;;;7.80;58.80;;;;;;5030804;28;20041;-67
2022/04/18 03:44:09;;;;;;;19.08;10.93;;;7.70;58.90;;;;;;5033092;28;20384;-66
2022/04/18 03:46:35;;;;;;;17.33;11.45;;;7.70;59.20;;;;;;5032843;28;20132;-67
2022/04/18 03:49:00;;;;;;;17.95;11.65;;;7.70;59.20;;;;;;5033267;28;20037;-66
2022/04/18 03:51:26;;;;;;;17.70;11.15;;;7.70;59.30;;;;;;5032634;28;20038;-66
2022/04/18 03:53:51;;;;;;;15.15;11.65;;;7.70;59.40;;;;;;5031735;28;20041;-66
2022/04/18 03:56:17;;;;;;;16.02;11.98;;;7.70;59.60;;;;;;5032803;28;20060;-66
2022/04/18 03:58:42;;;;;;;16.80;11.38;;;7.60;59.60;;;;;;5032840;28;20051;-67
2022/04/18 04:01:08;;;;;;;14.90;10.73;;;7.60;59.80;;;;;;5032340;28;20049;-66
2022/04/18 04:03:34;;;;;;;14.30;11.23;;;7.60;59.80;;;;;;5031407;28;20041;-66
2022/04/18 04:06:00;;;;;;;20.55;11.63;;;7.60;60.00;;;;;;5032830;28;20105;-66
2022/04/18 04:08:28;;;;;;;16.60;10.77;;;7.60;60.00;;;;;;5032704;28;20042;-66
2022/04/18 04:10:54;;;;;;;18.50;11.27;;;7.50;60.10;;;;;;5032434;28;20511;-67
2022/04/18 04:13:20;;;;;;;16.52;11.00;;;7.50;60.30;;;;;;5032202;28;20500;-66
2022/04/18 04:15:46;;;;;;;18.15;10.95;;;7.50;60.40;;;;;;5031513;28;20091;-66
2022/04/18 04:18:11;;;;;;;18.23;11.27;;;7.50;60.80;;;;;;5032631;28;20091;-66
2022/04/18 04:20:37;;;;;;;15.23;11.10;;;7.50;60.90;;;;;;5032344;28;20055;-67
2022/04/18 04:23:03;;;;;;;15.88;11.70;;;7.50;61.10;;;;;;5032183;28;20423;-66
2022/04/18 04:25:28;;;;;;;15.77;10.43;;;7.50;61.50;;;;;;5032382;28;20046;-66
2022/04/18 04:27:54;;;;;;;16.63;10.52;;;7.40;61.60;;;;;;5032238;28;20047;-66
2022/04/18 04:30:19;;;;;;;15.73;11.48;;;7.40;62.30;;;;;;5030699;28;20037;-66
2022/04/18 04:32:45;;;;;;;19.90;12.27;;;7.30;62.80;;;;;;5030752;28;20037;-66
2022/04/18 04:35:11;;;;;;;15.18;10.43;;;7.20;63.40;;;;;;5032297;28;20072;-66
2022/04/18 04:37:36;;;;;;;18.63;11.88;;;7.30;64.00;;;;;;5032153;28;20037;-66
2022/04/18 04:40:03;;;;;;;16.83;10.48;;;7.30;64.40;;;;;;5030667;28;20037;-66
2022/04/18 04:42:28;;;;;;;15.98;11.32;;;7.20;64.90;;;;;;5031944;28;20084;-66
2022/04/18 04:44:54;;;;;;;15.48;11.07;;;7.20;65.30;;;;;;5030615;28;20514;-66
2022/04/18 04:47:20;;;;;;;16.08;11.15;;;7.20;65.70;;;;;;5030616;28;20395;-66
2022/04/18 04:49:45;;;;;;;17.60;10.95;;;7.20;66.10;;;;;;5031777;28;20033;-66
2022/04/18 04:52:11;;;;;;;16.25;10.93;;;7.20;66.10;;;;;;5031475;28;20037;-66
2022/04/18 04:54:37;;;;;;;19.08;11.95;;;7.30;66.10;;;;;;5031848;28;20029;-66
2022/04/18 04:57:03;;;;;;;16.30;11.00;;;7.30;66.50;;;;;;5031735;28;20021;-66
2022/04/18 04:59:28;;;;;;;17.52;11.20;;;7.30;66.70;;;;;;5031626;28;20114;-68
2022/04/18 05:01:54;;;;;;;14.77;10.48;;;7.30;67.00;;;;;;5031370;28;20064;-67
2022/04/18 05:04:19;;;;;;;16.90;11.07;;;7.40;67.10;;;;;;5031740;28;20045;-67
2022/04/18 05:06:45;;;;;;;21.10;11.90;;;7.50;66.80;;;;;;5031720;28;20100;-66
2022/04/18 05:09:10;;;;;;;20.05;11.50;;;7.70;66.40;;;;;;5031643;28;20052;-66
2022/04/18 05:11:36;;;;;;;15.57;11.43;;;7.80;66.30;;;;;;5031198;28;20041;-67
2022/04/18 05:14:02;;;;;;;20.27;11.02;;;7.90;66.10;;;;;;5030390;28;20040;-67
2022/04/18 05:16:28;;;;;;;15.88;10.35;;;7.90;65.50;;;;;;5031632;28;20483;-67
2022/04/18 05:18:53;;;;;;;15.48;11.63;;;8.10;65.10;;;;;;5031674;28;20406;-66
2022/04/18 05:21:19;;;;;;;16.83;11.43;;;8.20;64.60;;;;;;5031039;28;20542;-67
2022/04/18 05:23:45;;;;;;;20.00;11.43;;;8.30;64.20;;;;;;5031478;28;20410;-66
2022/04/18 05:26:10;;;;;;;15.05;10.93;;;8.40;63.90;;;;;;5031334;28;20036;-66
2022/04/18 05:28:36;;;;;;;16.33;10.43;;;8.60;63.40;;;;;;5031205;28;20121;-66
2022/04/18 05:31:01;;;;;;;17.10;10.63;;;8.70;63.20;;;;;;5031103;28;20124;-66
2022/04/18 05:33:28;;;;;;;14.50;10.00;;;8.80;62.50;;;;;;5031343;28;20110;-66
2022/04/18 05:35:53;;;;;;;17.27;12.02;;;9.00;62.30;;;;;;5030244;28;20467;-67
2022/04/18 05:38:19;;;;;;;16.25;10.70;;;9.10;62.00;;;;;;5031368;28;20076;-66
2022/04/18 05:40:44;;;;;;;17.85;11.32;;;9.30;61.30;;;;;;5030906;28;20041;-66
2022/04/18 05:43:10;;;;;;;14.30;10.07;;;9.50;60.90;;;;;;5030953;28;20383;-66
2022/04/18 05:45:39;;;;;;;13.90;9.93;;;9.70;60.30;;;;;;5031432;28;20040;-67
2022/04/18 05:48:05;;;;;;;15.38;10.10;;;9.80;59.70;;;;;;5031015;28;20503;-67
2022/04/18 05:50:31;;;;;;;15.52;10.68;;;9.90;59.40;;;;;;5030985;28;20065;-67
2022/04/18 05:52:56;;;;;;;18.00;10.45;;;10.20;59.00;;;;;;5030935;28;20065;-66
2022/04/18 05:55:23;;;;;;;15.43;10.32;;;10.30;58.50;;;;;;5031131;28;20728;-67
2022/04/18 05:57:49;;;;;;;15.30;10.30;;;10.50;58.10;;;;;;5028424;28;20096;-67
2022/04/18 06:00:16;;;;;;;16.98;10.98;;;10.70;57.90;;;;;;5029696;28;20046;-67
2022/04/18 06:02:41;;;;;;;14.38;11.18;;;10.80;57.30;;;;;;5030879;28;20039;-67
2022/04/18 06:05:07;;;;;;;15.35;10.88;;;11.00;57.80;;;;;;5033674;28;20049;-67
2022/04/18 06:07:34;;;;;;;16.42;10.10;;;11.10;57.00;;;;;;5035044;28;20041;-67
2022/04/18 06:10:00;;;;;;;16.58;9.82;;;11.30;56.80;;;;;;5034642;28;20041;-67
2022/04/18 06:12:26;;;;;;;16.52;10.55;;;11.40;56.50;;;;;;5034568;28;20038;-67
2022/04/18 06:14:52;;;;;;;14.43;9.10;;;11.40;56.10;;;;;;5033574;28;20501;-66
2022/04/18 06:17:17;;;;;;;13.73;10.02;;;11.60;56.20;;;;;;5034790;28;20103;-67
2022/04/18 06:19:43;;;;;;;14.60;9.85;;;11.80;55.30;;;;;;5034583;28;20029;-66
2022/04/18 06:22:09;;;;;;;13.05;9.00;;;11.90;54.80;;;;;;5034309;28;20030;-67
2022/04/18 06:24:34;;;;;;;14.93;9.73;;;12.10;54.50;;;;;;5034839;28;20043;-67
2022/04/18 06:27:00;;;;;;;12.00;9.13;;;12.10;53.80;;;;;;5034347;28;20091;-67
2022/04/18 06:29:26;;;;;;;11.75;8.50;;;12.40;53.90;;;;;;5034553;28;20371;-67
2022/04/18 06:31:53;;;;;;;13.55;9.07;;;12.60;52.90;;;;;;5034074;28;20040;-67
2022/04/18 06:34:19;;;;;;;11.15;8.80;;;12.70;52.20;;;;;;5034411;28;20463;-67
2022/04/18 06:36:45;;;;;;;13.30;8.63;;;13.10;52.20;;;;;;5034490;28;20041;-67
2022/04/18 06:39:11;;;;;;;14.02;9.70;;;13.30;51.40;;;;;;5031616;28;20040;-67
2022/04/18 06:41:36;;;;;;;13.30;9.27;;;13.30;51.30;;;;;;5033886;28;20041;-67
2022/04/18 06:44:02;;;;;;;14.85;10.20;;;13.40;50.20;;;;;;5034469;28;20137;-67
2022/04/18 06:46:28;;;;;;;13.73;10.77;;;13.50;50.20;;;;;;5034278;28;20037;-67
2022/04/18 06:48:53;;;;;;;14.52;10.30;;;13.70;50.30;;;;;;5034328;28;20040;-67
2022/04/18 06:51:19;;;;;;;12.93;8.80;;;13.70;49.60;;;;;;5033731;28;20068;-67
2022/04/18 06:53:45;;;;;;;13.40;9.43;;;13.80;49.40;;;;;;5036346;28;20045;-67
2022/04/18 06:58:55;;;;;;;13.18;9.43;;;14.20;49.40;;;;;;5031778;28;20044;-67
2022/04/18 07:01:20;;;;;;;13.20;9.45;;;14.20;49.70;;;;;;5033691;28;20041;-67
2022/04/18 07:03:46;;;;;;;13.50;9.60;;;14.10;49.70;;;;;;5034119;28;20035;-67
2022/04/18 07:06:11;;;;;;;14.10;9.27;;;14.20;49.70;;;;;;5032899;28;20497;-67
2022/04/18 07:08:38;;;;;;;14.10;9.90;;;14.30;49.20;;;;;;5033811;28;20502;-67
2022/04/18 07:11:04;;;;;;;15.27;9.63;;;14.50;49.60;;;;;;5033428;28;20483;-67
2022/04/18 07:13:30;;;;;;;11.32;8.95;;;14.60;48.90;;;;;;5033211;28;20038;-67
2022/04/18 07:15:55;;;;;;;14.13;8.93;;;14.70;48.80;;;;;;5033097;28;20036;-66
2022/04/18 07:18:21;;;;;;;13.52;9.60;;;14.70;48.50;;;;;;5033748;28;20056;-67
2022/04/18 07:20:47;;;;;;;11.25;9.02;;;15.00;48.70;;;;;;5032864;28;20034;-67
2022/04/18 07:23:12;;;;;;;14.50;8.77;;;14.90;47.80;;;;;;5032864;28;20037;-66
2022/04/18 07:25:38;;;;;;;13.30;9.38;;;15.00;47.50;;;;;;5034028;28;20041;-66
2022/04/18 07:28:04;;;;;;;21.50;9.60;;;15.10;47.20;;;;;;5034220;28;20044;-67
2022/04/18 07:30:30;;;;;;;12.30;8.70;;;15.20;47.20;;;;;;5033711;28;20033;-66
2022/04/18 07:32:56;;;;;;;10.60;8.30;;;15.20;46.60;;;;;;5033739;28;20052;-66
2022/04/18 07:35:22;;;;;;;10.20;8.05;;;15.40;46.60;;;;;;5033808;28;20440;-67
2022/04/18 07:40:32;;;;;;;10.95;7.97;;;15.70;45.50;;;;;;5033654;28;20048;-67
2022/04/18 07:42:58;;;;;;;9.25;7.82;;;15.70;45.80;;;;;;5033736;28;20492;-67
2022/04/18 07:45:23;;;;;;;12.27;8.32;;;15.80;45.20;;;;;;5033757;28;20045;-67
2022/04/18 07:47:52;;;;;;;13.10;8.13;;;16.00;44.90;;;;;;5033301;28;20122;-67
2022/04/18 07:50:18;;;;;;;11.70;8.70;;;16.20;44.20;;;;;;5033565;28;20479;-67
2022/04/18 07:52:44;;;;;;;16.15;7.80;;;16.20;44.20;;;;;;5034024;28;20037;-66
2022/04/18 07:55:10;;;;;;;15.02;8.02;;;16.50;44.20;;;;;;5034364;28;20110;-67
2022/04/18 07:57:37;;;;;;;9.23;7.47;;;16.70;42.80;;;;;;5033563;28;20036;-67
2022/04/18 08:00:05;;;;;;;11.05;8.15;;;17.00;41.90;;;;;;5029569;28;20073;-67
2022/04/18 08:02:30;;;;;;;14.63;8.23;;;17.00;41.70;;;;;;5020576;28;20045;-67
2022/04/18 08:04:56;;;;;;;10.43;7.43;;;17.00;42.10;;;;;;5026075;28;20038;-67
2022/04/18 08:07:21;;;;;;;15.27;8.98;;;17.00;42.10;;;;;;5033217;28;20041;-66
2022/04/18 08:09:47;;;;;;;11.00;7.82;;;17.10;41.30;;;;;;5033178;28;20055;-67
2022/04/18 08:12:12;;;;;;;11.73;8.57;;;17.00;41.20;;;;;;5032606;28;20068;-67
2022/04/18 08:14:38;;;;;;;9.90;7.43;;;17.10;41.40;;;;;;5033318;28;20455;-67
2022/04/18 08:17:04;;;;;;;10.40;7.63;;;17.60;40.80;;;;;;5030346;28;20045;-67
2022/04/18 08:19:30;;;;;;;10.90;7.82;;;17.60;40.90;;;;;;5014675;28;20042;-67
2022/04/18 08:21:56;;;;;;;10.48;7.28;;;17.90;40.30;;;;;;5032189;28;20441;-69
2022/04/18 08:24:21;;;;;;;9.05;7.47;;;18.00;40.50;;;;;;5031181;28;20443;-68
2022/04/18 08:26:48;;;;;;;10.63;8.15;;;18.20;39.90;;;;;;5030541;28;20130;-68
2022/04/18 08:29:14;;;;;;;10.23;8.32;;;18.20;39.80;;;;;;5032463;28;20043;-68
2022/04/18 08:31:39;;;;;;;11.07;7.45;;;18.30;39.80;;;;;;5031995;28;20116;-67
2022/04/18 08:34:05;;;;;;;11.27;7.63;;;18.40;39.20;;;;;;5032075;28;21242;-68
2022/04/18 08:36:33;;;;;;;10.85;7.88;;;18.30;39.50;;;;;;5030714;28;20053;-67
2022/04/18 08:38:59;;;;;;;13.48;7.68;;;18.10;39.40;;;;;;5032097;28;20557;-68
2022/04/18 08:41:34;;;;;;;10.00;7.55;;;18.40;39.40;;;;;;5032024;28;20053;-68
2022/04/18 08:44:02;;;;;;;10.55;7.88;;;18.40;39.20;;;;;;5030374;28;20087;-67
2022/04/18 08:46:28;;;;;;;10.00;6.95;;;18.30;39.70;;;;;;5032008;28;20036;-69
2022/04/18 08:54:26;;;;;;;9.57;6.70;;;18.40;38.60;;;;;;5026615;28;20041;-68
2022/04/18 08:56:52;;;;;;;8.93;6.70;;;18.70;38.40;;;;;;5030445;28;20080;-67
2022/04/18 08:59:17;;;;;;;10.23;7.28;;;18.90;38.40;;;;;;5032232;28;20415;-67
2022/04/18 09:01:50;;;;;;;8.52;6.63;;;19.00;37.80;;;;;;5031619;28;20462;-67
2022/04/18 09:04:17;;;;;;;8.63;6.45;;;19.00;36.80;;;;;;5027367;28;20038;-68
2022/04/18 09:06:43;;;;;;;8.00;6.55;;;18.80;37.50;;;;;;5031891;28;20060;-70
2022/04/18 09:09:08;;;;;;;11.57;7.00;;;18.90;37.40;;;;;;5031577;28;20491;-67
2022/04/18 09:11:40;;;;;;;9.27;7.03;;;19.00;37.80;;;;;;5031051;28;20037;-67
2022/04/18 09:14:14;;;;;;;9.40;6.22;;;19.00;38.30;;;;;;5031758;28;20037;-67
2022/04/18 09:16:41;;;;;;;8.57;6.88;;;19.10;36.60;;;;;;5031754;28;20041;-68
2022/04/18 09:19:09;;;;;;;9.93;6.70;;;18.90;37.80;;;;;;5031654;28;20155;-68
2022/04/18 09:21:42;;;;;;;8.43;6.65;;;19.00;36.90;;;;;;5031128;28;20045;-67
2022/04/18 09:24:33;;;;;;;10.00;6.85;;;19.10;37.90;;;;;;5031663;28;20065;-68
2022/04/18 09:27:06;;;;;;;8.95;6.55;;;19.10;37.00;;;;;;5031861;28;20041;-68
2022/04/18 09:29:33;;;;;;;;;;;19.20;37.10;;;;;;5031965;28;20033;-68
2022/04/18 09:31:59;;;;;;;13.82;7.05;;;19.00;36.20;;;;;;5030997;28;19921;-67
2022/04/18 09:34:25;;;;;;;8.23;6.45;;;19.00;37.20;;;;;;5031325;28;20063;-68
2022/04/18 09:37:21;;;;;;;8.23;6.13;;;19.10;37.20;;;;;;5031168;28;20033;-68
2022/04/18 09:39:54;;;;;;;8.43;6.30;;;19.20;36.30;;;;;;5026648;28;20470;-68
2022/04/18 09:42:24;;;;;;;8.40;6.07;;;19.30;36.50;;;;;;5031254;28;20037;-68
2022/04/18 09:44:50;;;;;;;11.45;6.88;;;19.30;37.10;;;;;;5031059;28;20065;-68
2022/04/18 09:47:17;;;;;;;9.95;6.78;;;19.30;37.50;;;;;;5031227;28;20406;-67
2022/04/18 09:49:44;;;;;;;10.35;7.15;;;19.10;36.50;;;;;;5031342;28;20041;-68
2022/04/18 09:52:16;;;;;;;8.18;5.47;;;18.90;36.70;;;;;;5031058;28;20077;-68
2022/04/18 09:54:54;;;;;;;8.90;5.97;;;18.80;37.30;;;;;;5031200;28;20048;-68
2022/04/18 09:57:24;;;;;;;8.43;6.43;;;18.90;37.40;;;;;;5030886;28;20061;-68
2022/04/18 09:59:51;;;;;;;8.98;6.75;;;18.80;37.20;;;;;;5031205;28;20103;-68
2022/04/18 10:02:17;;;;;;;12.45;7.03;;;18.60;36.50;;;;;;5030958;28;20084;-68
2022/04/18 10:04:43;;;;;;;8.73;6.10;;;18.60;37.00;;;;;;5031148;28;20450;-67
2022/04/18 10:07:10;;;;;;;9.98;6.60;;;18.80;37.90;;;;;;5030981;28;20049;-68
2022/04/18 10:09:39;;;;;;;8.90;6.40;;;18.80;36.80;;;;;;5030676;28;20443;-69
2022/04/18 10:12:06;;;;;;;10.35;6.55;;;18.80;38.00;;;;;;5029377;28;20100;-69
2022/04/18 10:14:32;;;;;;;7.38;5.40;;;18.70;37.60;;;;;;5031223;28;20040;-68
2022/04/18 10:17:00;;;;;;;9.73;6.55;;;18.90;37.40;;;;;;5025328;28;20034;-70
2022/04/18 10:19:49;;;;;;;8.90;6.85;;;18.80;36.40;;;;;;5031151;28;20056;-68
2022/04/18 10:22:43;;;;;;;9.18;6.82;;;18.80;36.90;;;;;;5030471;28;20041;-68
2022/04/18 10:25:11;;;;;;;7.93;6.13;;;18.60;36.90;;;;;;5027801;28;20092;-68
2022/04/18 10:28:01;;;;;;;8.73;5.78;;;18.50;37.00;;;;;;5030889;28;20502;-68
2022/04/18 10:30:28;;;;;;;10.63;5.55;;;18.70;37.60;;;;;;5030149;28;20441;-68
2022/04/18 10:32:55;;;;;;;7.78;4.88;;;18.80;37.90;;;;;;5016155;28;20411;-67
2022/04/18 10:35:22;;;;;;;7.75;4.78;;;18.90;35.60;;;;;;5011370;28;20048;-67
2022/04/18 10:37:53;;;;;;;7.28;5.35;;;18.70;35.70;;;;;;5010186;28;20065;-68
2022/04/18 10:40:19;;;;;;;8.18;5.60;;;18.60;35.90;;;;;;5011173;28;20521;-68
2022/04/18 10:42:45;;;;;;;7.82;5.22;;;18.60;35.10;;;;;;5010101;28;20046;-69
2022/04/18 10:45:17;;;;;;;11.98;6.07;;;18.50;35.20;;;;;;5011344;28;20064;-69
2022/04/18 10:48:04;;;;;;;8.52;5.85;;;18.60;35.30;;;;;;5027647;28;20119;-69
2022/04/18 10:50:38;;;;;;;8.70;5.30;;;18.50;34.80;;;;;;5034490;28;20080;-69
2022/04/18 10:53:22;;;;;;;6.00;4.80;;;18.50;35.00;;;;;;5034617;28;20041;-72
2022/04/18 10:55:50;;;;;;;6.20;4.68;;;18.50;33.30;;;;;;5033296;28;20502;-72
2022/04/18 10:58:20;;;;;;;8.05;5.13;;;18.30;32.70;;;;;;5034671;28;20040;-72
2022/04/18 11:00:51;;;;;;;5.80;4.60;;;18.30;33.10;;;;;;5034310;28;20037;-72
2022/04/18 11:03:38;;;;;;;5.40;4.18;;;18.40;33.40;;;;;;5033098;28;20069;-72
2022/04/18 11:06:08;;;;;;;6.82;4.72;;;18.50;32.80;;;;;;5034196;28;20124;-72
2022/04/18 11:08:37;;;;;;;6.50;4.70;;;18.50;33.40;;;;;;5033445;28;20041;-72
2022/04/18 11:11:20;;;;;;;8.25;4.78;;;18.50;33.70;;;;;;5034021;28;20068;-72
2022/04/18 11:13:50;;;;;;;5.55;4.88;;;18.50;32.30;;;;;;5032952;28;20038;-72
2022/04/18 11:16:24;;;;;;;6.63;5.40;;;18.40;33.10;;;;;;5034056;28;20558;-72
2022/04/18 11:19:09;;;;;;;6.53;5.07;;;18.30;32.40;;;;;;5032964;28;20041;-72
2022/04/18 11:22:00;;;;;;;8.30;4.95;;;18.10;31.60;;;;;;5033716;28;20061;-72
2022/04/18 11:24:42;;;;;;;8.40;5.05;;;18.10;31.90;;;;;;5034046;28;20100;-72
2022/04/18 11:27:13;;;;;;;7.90;4.90;;;18.00;31.70;;;;;;5034196;28;20037;-72
2022/04/18 11:29:42;;;;;;;6.95;4.97;;;18.10;33.10;;;;;;5032684;28;20503;-72
2022/04/18 11:32:09;;;;;;;8.25;4.85;;;18.20;32.60;;;;;;5033480;28;20037;-72
2022/04/18 11:34:36;;;;;;;6.60;4.68;;;18.20;32.70;;;;;;5032791;28;20037;-72
2022/04/18 11:37:08;;;;;;;6.97;4.32;;;18.20;31.90;;;;;;5033788;28;20084;-72
2022/04/18 11:39:45;;;;;;;6.45;4.32;;;18.20;31.00;;;;;;5032489;28;20083;-72
2022/04/18 11:42:16;;;;;;;4.90;4.35;;;18.20;30.70;;;;;;5033523;28;20069;-72
2022/04/18 11:44:43;;;;;;;7.85;4.00;;;18.20;31.10;;;;;;5033780;28;20399;-72
2022/04/18 11:47:10;;;;;;;5.05;4.13;;;18.40;31.20;;;;;;5033618;28;20045;-72
2022/04/18 11:49:40;;;;;;;5.50;4.28;;;18.50;31.70;;;;;;5032240;28;20111;-72
2022/04/18 11:52:17;;;;;;;9.75;4.90;;;18.50;31.20;;;;;;5033336;28;20045;-72
2022/04/18 11:55:07;;;;;;;6.63;4.57;;;18.50;31.60;;;;;;5032497;28;20042;-71
2022/04/18 11:57:37;;;;;;;7.65;4.63;;;18.50;31.60;;;;;;5027467;28;20072;-71
2022/04/18 12:00:12;;;;;;;7.05;5.18;;;18.60;32.50;;;;;;5031211;28;20045;-70
2022/04/18 12:08:11;;;;;;;16.75;5.63;;;18.80;32.30;;;;;;5033337;28;20049;-70
2022/04/18 12:10:42;;;;;;;9.48;5.70;;;18.70;31.20;;;;;;5032790;28;20049;-70
2022/04/18 12:13:09;;;;;;;7.30;4.90;;;18.70;31.70;;;;;;5031879;28;20127;-70
2022/04/18 12:15:35;;;;;;;6.07;4.97;;;18.80;32.40;;;;;;5031829;28;20037;-70
2022/04/18 12:18:18;;;;;;;9.77;4.78;;;19.00;32.90;;;;;;5032926;28;20056;-70
2022/04/18 12:20:50;;;;;;;9.18;4.78;;;19.00;32.20;;;;;;5027604;28;20538;-70
2022/04/18 12:23:15;;;;;;;6.22;4.70;;;18.90;31.90;;;;;;5028551;28;20067;-70
2022/04/18 12:25:47;;;;;;;17.92;4.88;;;19.00;32.20;;;;;;5023350;28;20560;-70
2022/04/18 12:28:15;;;;;;;13.25;5.18;;;19.10;32.50;;;;;;5033063;28;20041;-70
2022/04/18 12:30:41;;;;;;;14.75;6.28;;;19.20;32.00;;;;;;5014999;28;20052;-70
2022/04/18 12:33:20;;;;;;;10.15;5.45;;;19.20;31.80;;;;;;5031232;28;20408;-70
2022/04/18 12:35:48;;;;;;;5.88;4.97;;;19.10;31.50;;;;;;5023044;28;20045;-70
2022/04/18 12:38:16;;;;;;;12.32;5.82;;;19.10;31.80;;;;;;5031596;28;20041;-70
2022/04/18 12:40:46;;;;;;;19.17;6.15;;;19.10;31.80;;;;;;5032527;28;20030;-70
2022/04/18 12:43:16;;;;;;;8.77;5.15;;;19.20;31.90;;;;;;5032537;28;20041;-70
2022/04/18 12:45:51;;;;;;;9.77;4.82;;;19.20;32.30;;;;;;5031250;28;20072;-70
2022/04/18 12:48:28;;;;;;;7.68;5.38;;;19.30;31.90;;;;;;5031471;28;20041;-70
2022/04/18 12:50:55;;;;;;;10.05;4.95;;;19.10;31.00;;;;;;5032264;28;20052;-70
2022/04/18 12:53:42;;;;;;;8.52;5.22;;;19.00;30.70;;;;;;5025522;28;20081;-70
2022/04/18 12:56:07;;;;;;;6.05;4.68;;;19.20;31.20;;;;;;5011243;28;20038;-70
2022/04/18 12:58:39;;;;;;;32.40;6.65;;;19.30;32.20;;;;;;5011516;28;20052;-70
2022/04/18 13:01:05;;;;;;;11.73;5.00;;;19.40;32.40;;;;;;5012424;28;20092;-71
2022/04/18 13:03:43;;;;;;;12.65;5.10;;;19.40;32.00;;;;;;5012426;28;20042;-70
2022/04/18 13:06:09;;;;;;;6.20;5.03;;;19.50;31.20;;;;;;5011200;28;20049;-70
2022/04/18 13:08:39;;;;;;;6.60;3.92;;;19.40;31.30;;;;;;5012343;28;20049;-71
2022/04/18 13:11:06;;;;;;;6.80;4.53;;;19.50;36.10;;;;;;5010728;28;20046;-70